sensor_id;sensor_type;location;lat;lon;timestamp;temperature;humidity
10885;DHT22;5495;53.252;10.390;2022-09-09T00:01:25;12.90;99.90
10885;DHT22;5495;53.252;10.390;2022-09-09T00:04:00;14.80;99.90
10885;DHT22;5495;53.252;10.390;2022-09-09T00:06:32;14.70;99.90
10885;DHT22;5495;53.252;10.390;2022-09-09T00:09:10;14.70;99.90
10885;DHT22;5495;53.252;10.390;2022-09-09T00:11:43;14.70;99.90
10885;DHT22;5495;53.252;10.390;2022-09-09T00:14:19;14.60;99.90
10885;DHT22;5495;53.252;10.390;2022-09-09T00:16:54;14.60;99.90
10885;DHT22;5495;53.252;10.390;2022-09-09T00:19:26;14.50;99.90
10885;DHT22;5495;53.252;10.390;2022-09-09T00:22:13;14.50;99.90
10885;DHT22;5495;53.252;10.390;2022-09-09T00:24:46;14.40;99.90
10885;DHT22;5495;53.252;10.390;2022-09-09T00:27:26;14.50;99.90
10885;DHT22;5495;53.252;10.390;2022-09-09T00:30:00;14.50;99.90
10885;DHT22;5495;53.252;10.390;2022-09-09T00:32:30;14.40;99.90
10885;DHT22;5495;53.252;10.390;2022-09-09T00:35:02;14.40;99.90
10885;DHT22;5495;53.252;10.390;2022-09-09T00:37:37;14.30;99.90
10885;DHT22;5495;53.252;10.390;2022-09-09T00:40:22;14.30;99.90
10885;DHT22;5495;53.252;10.390;2022-09-09T00:43:00;14.20;99.90
10885;DHT22;5495;53.252;10.390;2022-09-09T00:46:10;14.20;99.90
10885;DHT22;5495;53.252;10.390;2022-09-09T00:48:50;14.20;99.90
10885;DHT22;5495;53.252;10.390;2022-09-09T00:51:30;14.10;99.90
10885;DHT22;5495;53.252;10.390;2022-09-09T00:54:20;14.00;99.90
10885;DHT22;5495;53.252;10.390;2022-09-09T00:56:59;13.90;99.90
10885;DHT22;5495;53.252;10.390;2022-09-09T00:59:40;13.90;99.90
10885;DHT22;5495;53.252;10.390;2022-09-09T01:02:19;13.90;99.90
10885;DHT22;5495;53.252;10.390;2022-09-09T01:04:49;13.80;99.90
10885;DHT22;5495;53.252;10.390;2022-09-09T01:07:18;13.80;99.90
10885;DHT22;5495;53.252;10.390;2022-09-09T01:09:52;13.80;99.90
10885;DHT22;5495;53.252;10.390;2022-09-09T01:12:32;13.70;99.90
10885;DHT22;5495;53.252;10.390;2022-09-09T01:15:10;13.80;99.90
10885;DHT22;5495;53.252;10.390;2022-09-09T01:17:48;13.80;99.90
10885;DHT22;5495;53.252;10.390;2022-09-09T01:20:21;13.80;99.90
10885;DHT22;5495;53.252;10.390;2022-09-09T01:23:14;13.80;99.90
10885;DHT22;5495;53.252;10.390;2022-09-09T01:28:55;13.80;99.90
10885;DHT22;5495;53.252;10.390;2022-09-09T01:31:27;13.90;99.90
10885;DHT22;5495;53.252;10.390;2022-09-09T01:33:57;13.90;99.90
10885;DHT22;5495;53.252;10.390;2022-09-09T01:36:29;13.90;99.90
10885;DHT22;5495;53.252;10.390;2022-09-09T01:39:02;13.90;99.90
10885;DHT22;5495;53.252;10.390;2022-09-09T01:41:30;13.80;99.90
10885;DHT22;5495;53.252;10.390;2022-09-09T01:43:59;13.70;99.90
10885;DHT22;5495;53.252;10.390;2022-09-09T01:46:28;13.80;99.90
10885;DHT22;5495;53.252;10.390;2022-09-09T01:48:57;13.80;99.90
10885;DHT22;5495;53.252;10.390;2022-09-09T01:51:26;13.70;99.90
10885;DHT22;5495;53.252;10.390;2022-09-09T01:53:54;13.70;99.90
10885;DHT22;5495;53.252;10.390;2022-09-09T01:56:37;13.60;99.90
10885;DHT22;5495;53.252;10.390;2022-09-09T01:59:15;13.60;99.90
10885;DHT22;5495;53.252;10.390;2022-09-09T02:01:57;13.60;99.90
10885;DHT22;5495;53.252;10.390;2022-09-09T02:04:39;13.50;99.90
10885;DHT22;5495;53.252;10.390;2022-09-09T02:07:14;13.50;99.90
10885;DHT22;5495;53.252;10.390;2022-09-09T02:09:45;13.40;99.90
10885;DHT22;5495;53.252;10.390;2022-09-09T02:12:18;13.30;99.90
10885;DHT22;5495;53.252;10.390;2022-09-09T02:14:50;13.40;99.90
10885;DHT22;5495;53.252;10.390;2022-09-09T02:17:24;13.30;99.90
10885;DHT22;5495;53.252;10.390;2022-09-09T02:19:59;13.20;99.90
10885;DHT22;5495;53.252;10.390;2022-09-09T02:22:33;13.20;99.90
10885;DHT22;5495;53.252;10.390;2022-09-09T02:25:04;13.10;99.90
10885;DHT22;5495;53.252;10.390;2022-09-09T02:27:35;13.10;99.90
10885;DHT22;5495;53.252;10.390;2022-09-09T02:30:05;13.10;99.90
10885;DHT22;5495;53.252;10.390;2022-09-09T02:32:34;13.00;99.90
10885;DHT22;5495;53.252;10.390;2022-09-09T02:35:05;13.00;99.90
10885;DHT22;5495;53.252;10.390;2022-09-09T02:37:37;13.00;99.90
10885;DHT22;5495;53.252;10.390;2022-09-09T02:40:07;13.00;99.90
10885;DHT22;5495;53.252;10.390;2022-09-09T02:42:39;13.00;99.90
10885;DHT22;5495;53.252;10.390;2022-09-09T02:45:11;13.00;99.90
10885;DHT22;5495;53.252;10.390;2022-09-09T02:47:45;13.00;99.90
10885;DHT22;5495;53.252;10.390;2022-09-09T02:50:18;13.00;99.90
10885;DHT22;5495;53.252;10.390;2022-09-09T02:52:58;12.90;99.90
10885;DHT22;5495;53.252;10.390;2022-09-09T02:55:38;12.80;99.90
10885;DHT22;5495;53.252;10.390;2022-09-09T02:58:08;12.90;99.90
10885;DHT22;5495;53.252;10.390;2022-09-09T03:00:40;12.80;99.90
10885;DHT22;5495;53.252;10.390;2022-09-09T03:03:08;12.80;99.90
10885;DHT22;5495;53.252;10.390;2022-09-09T03:05:36;12.80;99.90
10885;DHT22;5495;53.252;10.390;2022-09-09T03:08:06;12.70;99.90
10885;DHT22;5495;53.252;10.390;2022-09-09T03:10:34;12.70;99.90
10885;DHT22;5495;53.252;10.390;2022-09-09T03:13:03;12.70;99.90
10885;DHT22;5495;53.252;10.390;2022-09-09T03:15:31;12.70;99.90
10885;DHT22;5495;53.252;10.390;2022-09-09T03:18:01;11.80;99.90
10885;DHT22;5495;53.252;10.390;2022-09-09T03:20:29;11.20;99.90
10885;DHT22;5495;53.252;10.390;2022-09-09T03:23:00;12.60;99.90
10885;DHT22;5495;53.252;10.390;2022-09-09T03:25:29;12.60;99.90
10885;DHT22;5495;53.252;10.390;2022-09-09T03:27:57;12.60;99.90
10885;DHT22;5495;53.252;10.390;2022-09-09T03:30:26;12.50;99.90
10885;DHT22;5495;53.252;10.390;2022-09-09T03:32:55;12.60;99.90
10885;DHT22;5495;53.252;10.390;2022-09-09T03:35:24;12.60;99.90
10885;DHT22;5495;53.252;10.390;2022-09-09T03:37:51;12.50;99.90
10885;DHT22;5495;53.252;10.390;2022-09-09T03:40:20;12.50;99.90
10885;DHT22;5495;53.252;10.390;2022-09-09T03:42:48;12.50;99.90
10885;DHT22;5495;53.252;10.390;2022-09-09T03:45:16;12.10;99.90
10885;DHT22;5495;53.252;10.390;2022-09-09T03:47:44;12.50;99.90
10885;DHT22;5495;53.252;10.390;2022-09-09T03:50:11;12.60;99.90
10885;DHT22;5495;53.252;10.390;2022-09-09T03:52:41;12.30;99.90
10885;DHT22;5495;53.252;10.390;2022-09-09T03:55:09;12.60;99.90
10885;DHT22;5495;53.252;10.390;2022-09-09T03:57:37;12.60;99.90
10885;DHT22;5495;53.252;10.390;2022-09-09T04:00:07;12.50;99.90
10885;DHT22;5495;53.252;10.390;2022-09-09T04:02:37;12.60;99.90
10885;DHT22;5495;53.252;10.390;2022-09-09T04:05:06;12.50;99.90
10885;DHT22;5495;53.252;10.390;2022-09-09T04:07:33;12.50;99.90
10885;DHT22;5495;53.252;10.390;2022-09-09T04:10:03;12.50;99.90
10885;DHT22;5495;53.252;10.390;2022-09-09T04:12:30;12.60;99.90
10885;DHT22;5495;53.252;10.390;2022-09-09T04:14:58;12.60;99.90
10885;DHT22;5495;53.252;10.390;2022-09-09T04:17:25;12.70;99.90
10885;DHT22;5495;53.252;10.390;2022-09-09T04:19:52;12.70;99.90
10885;DHT22;5495;53.252;10.390;2022-09-09T04:22:20;12.80;99.90
10885;DHT22;5495;53.252;10.390;2022-09-09T04:24:48;12.80;99.90
10885;DHT22;5495;53.252;10.390;2022-09-09T04:27:17;12.80;99.90
10885;DHT22;5495;53.252;10.390;2022-09-09T04:29:45;12.90;99.90
10885;DHT22;5495;53.252;10.390;2022-09-09T04:32:12;13.00;99.90
10885;DHT22;5495;53.252;10.390;2022-09-09T04:34:45;13.10;99.90
10885;DHT22;5495;53.252;10.390;2022-09-09T04:37:16;13.10;99.90
10885;DHT22;5495;53.252;10.390;2022-09-09T04:39:44;13.20;99.90
10885;DHT22;5495;53.252;10.390;2022-09-09T04:42:11;13.20;99.90
10885;DHT22;5495;53.252;10.390;2022-09-09T04:44:40;13.20;99.90
10885;DHT22;5495;53.252;10.390;2022-09-09T04:47:08;13.30;99.90
10885;DHT22;5495;53.252;10.390;2022-09-09T04:49:35;13.30;99.90
10885;DHT22;5495;53.252;10.390;2022-09-09T04:52:04;13.40;99.90
10885;DHT22;5495;53.252;10.390;2022-09-09T04:54:32;13.40;99.90
10885;DHT22;5495;53.252;10.390;2022-09-09T04:56:59;13.40;99.90
10885;DHT22;5495;53.252;10.390;2022-09-09T04:59:26;13.50;99.90
10885;DHT22;5495;53.252;10.390;2022-09-09T05:01:57;13.90;99.90
10885;DHT22;5495;53.252;10.390;2022-09-09T05:04:26;13.50;99.90
10885;DHT22;5495;53.252;10.390;2022-09-09T05:06:54;13.60;99.90
10885;DHT22;5495;53.252;10.390;2022-09-09T05:09:22;13.70;99.90
10885;DHT22;5495;53.252;10.390;2022-09-09T05:11:50;13.60;99.90
10885;DHT22;5495;53.252;10.390;2022-09-09T05:14:20;13.60;99.90
10885;DHT22;5495;53.252;10.390;2022-09-09T05:16:48;13.50;99.90
10885;DHT22;5495;53.252;10.390;2022-09-09T05:19:19;13.60;99.90
10885;DHT22;5495;53.252;10.390;2022-09-09T05:21:46;13.60;99.90
10885;DHT22;5495;53.252;10.390;2022-09-09T05:24:14;13.50;99.90
10885;DHT22;5495;53.252;10.390;2022-09-09T05:26:43;13.50;99.90
10885;DHT22;5495;53.252;10.390;2022-09-09T05:29:11;13.50;99.90
10885;DHT22;5495;53.252;10.390;2022-09-09T05:31:42;13.50;99.90
10885;DHT22;5495;53.252;10.390;2022-09-09T05:34:10;13.60;99.90
10885;DHT22;5495;53.252;10.390;2022-09-09T05:36:39;13.50;99.90
10885;DHT22;5495;53.252;10.390;2022-09-09T05:39:08;15.40;99.90
10885;DHT22;5495;53.252;10.390;2022-09-09T05:41:37;13.70;99.90
10885;DHT22;5495;53.252;10.390;2022-09-09T05:44:05;13.60;99.90
10885;DHT22;5495;53.252;10.390;2022-09-09T05:46:33;13.60;99.90
10885;DHT22;5495;53.252;10.390;2022-09-09T05:49:02;14.30;99.90
10885;DHT22;5495;53.252;10.390;2022-09-09T05:51:34;13.80;99.90
10885;DHT22;5495;53.252;10.390;2022-09-09T05:54:15;13.90;99.90
10885;DHT22;5495;53.252;10.390;2022-09-09T05:56:43;14.00;99.90
10885;DHT22;5495;53.252;10.390;2022-09-09T05:59:11;13.90;99.90
10885;DHT22;5495;53.252;10.390;2022-09-09T06:01:38;14.00;99.90
10885;DHT22;5495;53.252;10.390;2022-09-09T06:04:09;14.40;99.90
10885;DHT22;5495;53.252;10.390;2022-09-09T06:06:38;14.00;99.90
10885;DHT22;5495;53.252;10.390;2022-09-09T06:09:12;14.00;99.90
10885;DHT22;5495;53.252;10.390;2022-09-09T06:11:42;14.40;99.90
10885;DHT22;5495;53.252;10.390;2022-09-09T06:14:13;14.10;99.90
10885;DHT22;5495;53.252;10.390;2022-09-09T06:16:40;14.10;99.90
10885;DHT22;5495;53.252;10.390;2022-09-09T06:19:13;14.00;99.90
10885;DHT22;5495;53.252;10.390;2022-09-09T06:21:40;15.30;99.90
10885;DHT22;5495;53.252;10.390;2022-09-09T06:24:14;14.10;99.90
10885;DHT22;5495;53.252;10.390;2022-09-09T06:26:43;14.10;99.90
10885;DHT22;5495;53.252;10.390;2022-09-09T06:29:11;14.20;99.90
10885;DHT22;5495;53.252;10.390;2022-09-09T06:31:39;14.20;99.90
10885;DHT22;5495;53.252;10.390;2022-09-09T06:34:09;14.10;99.90
10885;DHT22;5495;53.252;10.390;2022-09-09T06:36:38;16.30;99.90
10885;DHT22;5495;53.252;10.390;2022-09-09T06:39:09;14.50;99.90
10885;DHT22;5495;53.252;10.390;2022-09-09T06:41:38;14.30;99.90
10885;DHT22;5495;53.252;10.390;2022-09-09T06:44:07;14.60;99.90
10885;DHT22;5495;53.252;10.390;2022-09-09T06:46:34;14.40;99.90
10885;DHT22;5495;53.252;10.390;2022-09-09T06:49:02;14.50;99.90
10885;DHT22;5495;53.252;10.390;2022-09-09T06:51:34;14.50;99.90
10885;DHT22;5495;53.252;10.390;2022-09-09T06:54:09;14.60;99.90
10885;DHT22;5495;53.252;10.390;2022-09-09T06:56:42;14.70;99.90
10885;DHT22;5495;53.252;10.390;2022-09-09T06:59:11;13.10;99.90
10885;DHT22;5495;53.252;10.390;2022-09-09T07:01:41;14.80;99.90
10885;DHT22;5495;53.252;10.390;2022-09-09T07:04:09;15.10;99.90
10885;DHT22;5495;53.252;10.390;2022-09-09T07:06:41;15.00;99.90
10885;DHT22;5495;53.252;10.390;2022-09-09T07:09:12;14.50;99.90
10885;DHT22;5495;53.252;10.390;2022-09-09T07:11:42;15.30;99.90
10885;DHT22;5495;53.252;10.390;2022-09-09T07:14:10;15.90;99.90
10885;DHT22;5495;53.252;10.390;2022-09-09T07:16:42;15.40;99.90
10885;DHT22;5495;53.252;10.390;2022-09-09T07:19:11;15.50;99.90
10885;DHT22;5495;53.252;10.390;2022-09-09T07:21:47;16.10;99.90
10885;DHT22;5495;53.252;10.390;2022-09-09T07:24:16;15.70;99.90
10885;DHT22;5495;53.252;10.390;2022-09-09T07:26:45;15.90;99.90
10885;DHT22;5495;53.252;10.390;2022-09-09T07:29:17;15.40;99.90
10885;DHT22;5495;53.252;10.390;2022-09-09T07:31:45;15.90;99.90
10885;DHT22;5495;53.252;10.390;2022-09-09T07:34:13;15.90;99.90
10885;DHT22;5495;53.252;10.390;2022-09-09T07:36:44;16.00;99.90
10885;DHT22;5495;53.252;10.390;2022-09-09T07:39:13;16.00;99.90
10885;DHT22;5495;53.252;10.390;2022-09-09T07:41:45;16.10;99.90
10885;DHT22;5495;53.252;10.390;2022-09-09T07:44:19;16.10;99.90
10885;DHT22;5495;53.252;10.390;2022-09-09T07:46:52;16.30;99.90
10885;DHT22;5495;53.252;10.390;2022-09-09T07:49:21;14.40;99.90
10885;DHT22;5495;53.252;10.390;2022-09-09T07:51:49;16.50;99.90
10885;DHT22;5495;53.252;10.390;2022-09-09T07:54:18;16.60;99.90
10885;DHT22;5495;53.252;10.390;2022-09-09T07:56:54;16.70;99.90
10885;DHT22;5495;53.252;10.390;2022-09-09T07:59:21;16.80;99.90
10885;DHT22;5495;53.252;10.390;2022-09-09T08:01:51;16.90;99.90
10885;DHT22;5495;53.252;10.390;2022-09-09T08:04:21;16.90;99.90
10885;DHT22;5495;53.252;10.390;2022-09-09T08:06:52;16.90;99.90
10885;DHT22;5495;53.252;10.390;2022-09-09T08:09:23;17.00;99.90
10885;DHT22;5495;53.252;10.390;2022-09-09T08:11:54;18.00;99.90
10885;DHT22;5495;53.252;10.390;2022-09-09T08:14:23;17.10;99.90
10885;DHT22;5495;53.252;10.390;2022-09-09T08:16:53;17.10;99.90
10885;DHT22;5495;53.252;10.390;2022-09-09T08:19:21;17.20;99.90
10885;DHT22;5495;53.252;10.390;2022-09-09T08:21:48;17.20;99.90
10885;DHT22;5495;53.252;10.390;2022-09-09T08:24:16;17.30;99.90
10885;DHT22;5495;53.252;10.390;2022-09-09T08:26:46;17.40;99.90
10885;DHT22;5495;53.252;10.390;2022-09-09T08:29:22;17.50;99.90
10885;DHT22;5495;53.252;10.390;2022-09-09T08:31:52;17.50;99.90
10885;DHT22;5495;53.252;10.390;2022-09-09T08:34:20;17.60;99.90
10885;DHT22;5495;53.252;10.390;2022-09-09T08:36:49;17.60;99.90
10885;DHT22;5495;53.252;10.390;2022-09-09T08:39:19;17.60;99.90
10885;DHT22;5495;53.252;10.390;2022-09-09T08:42:08;17.80;99.90
10885;DHT22;5495;53.252;10.390;2022-09-09T08:45:00;17.90;99.90
10885;DHT22;5495;53.252;10.390;2022-09-09T08:47:36;17.90;99.90
10885;DHT22;5495;53.252;10.390;2022-09-09T08:50:19;18.00;99.90
10885;DHT22;5495;53.252;10.390;2022-09-09T08:52:57;18.00;99.90
10885;DHT22;5495;53.252;10.390;2022-09-09T08:55:37;18.10;99.90
10885;DHT22;5495;53.252;10.390;2022-09-09T08:58:25;18.10;99.90
10885;DHT22;5495;53.252;10.390;2022-09-09T09:04:11;20.00;99.90
10885;DHT22;5495;53.252;10.390;2022-09-09T09:06:50;18.80;99.90
10885;DHT22;5495;53.252;10.390;2022-09-09T09:09:31;18.60;99.90
10885;DHT22;5495;53.252;10.390;2022-09-09T09:12:14;18.50;99.90
10885;DHT22;5495;53.252;10.390;2022-09-09T09:14:45;18.90;99.90
10885;DHT22;5495;53.252;10.390;2022-09-09T09:17:17;21.60;99.90
10885;DHT22;5495;53.252;10.390;2022-09-09T09:19:47;19.40;99.90
10885;DHT22;5495;53.252;10.390;2022-09-09T09:22:19;19.90;99.90
10885;DHT22;5495;53.252;10.390;2022-09-09T09:24:53;19.70;99.90
10885;DHT22;5495;53.252;10.390;2022-09-09T09:27:28;20.30;99.90
10885;DHT22;5495;53.252;10.390;2022-09-09T09:30:14;20.10;99.90
10885;DHT22;5495;53.252;10.390;2022-09-09T09:32:52;20.00;99.90
10885;DHT22;5495;53.252;10.390;2022-09-09T09:35:20;19.50;99.90
10885;DHT22;5495;53.252;10.390;2022-09-09T09:37:52;19.40;99.90
10885;DHT22;5495;53.252;10.390;2022-09-09T09:40:24;19.20;99.90
10885;DHT22;5495;53.252;10.390;2022-09-09T09:42:58;19.20;99.90
10885;DHT22;5495;53.252;10.390;2022-09-09T09:45:33;19.50;99.90
10885;DHT22;5495;53.252;10.390;2022-09-09T09:48:05;19.20;99.90
10885;DHT22;5495;53.252;10.390;2022-09-09T09:50:33;19.20;99.90
10885;DHT22;5495;53.252;10.390;2022-09-09T09:53:04;19.30;99.90
10885;DHT22;5495;53.252;10.390;2022-09-09T09:56:00;19.40;99.90
10885;DHT22;5495;53.252;10.390;2022-09-09T09:58:50;20.70;99.90
10885;DHT22;5495;53.252;10.390;2022-09-09T10:01:21;19.60;99.90
10885;DHT22;5495;53.252;10.390;2022-09-09T10:03:54;19.70;99.90
10885;DHT22;5495;53.252;10.390;2022-09-09T10:06:36;19.90;99.90
10885;DHT22;5495;53.252;10.390;2022-09-09T10:09:21;19.90;99.90
10885;DHT22;5495;53.252;10.390;2022-09-09T10:12:12;20.10;99.90
10885;DHT22;5495;53.252;10.390;2022-09-09T10:14:49;20.60;99.90
10885;DHT22;5495;53.252;10.390;2022-09-09T10:17:41;19.80;99.90
10885;DHT22;5495;53.252;10.390;2022-09-09T10:20:35;20.40;99.90
10885;DHT22;5495;53.252;10.390;2022-09-09T10:23:15;20.60;99.90
10885;DHT22;5495;53.252;10.390;2022-09-09T10:26:02;20.70;99.90
10885;DHT22;5495;53.252;10.390;2022-09-09T10:28:49;21.00;99.90
10885;DHT22;5495;53.252;10.390;2022-09-09T10:31:27;21.20;99.90
10885;DHT22;5495;53.252;10.390;2022-09-09T10:34:05;21.40;99.90
10885;DHT22;5495;53.252;10.390;2022-09-09T10:36:46;21.50;99.90
10885;DHT22;5495;53.252;10.390;2022-09-09T10:39:24;20.70;99.90
10885;DHT22;5495;53.252;10.390;2022-09-09T10:42:00;21.80;99.90
10885;DHT22;5495;53.252;10.390;2022-09-09T10:44:53;22.00;99.90
10885;DHT22;5495;53.252;10.390;2022-09-09T10:47:42;22.20;99.90
10885;DHT22;5495;53.252;10.390;2022-09-09T10:50:29;22.50;99.90
10885;DHT22;5495;53.252;10.390;2022-09-09T10:53:08;21.50;99.90
10885;DHT22;5495;53.252;10.390;2022-09-09T10:55:43;23.10;99.90
10885;DHT22;5495;53.252;10.390;2022-09-09T10:58:13;23.30;99.90
10885;DHT22;5495;53.252;10.390;2022-09-09T11:00:47;23.50;99.90
10885;DHT22;5495;53.252;10.390;2022-09-09T11:03:20;23.50;99.90
10885;DHT22;5495;53.252;10.390;2022-09-09T11:05:51;23.20;99.90
10885;DHT22;5495;53.252;10.390;2022-09-09T11:08:26;22.80;99.90
10885;DHT22;5495;53.252;10.390;2022-09-09T11:11:00;22.30;99.90
10885;DHT22;5495;53.252;10.390;2022-09-09T11:13:44;21.90;99.90
10885;DHT22;5495;53.252;10.390;2022-09-09T11:16:20;21.70;99.90
10885;DHT22;5495;53.252;10.390;2022-09-09T11:18:57;21.50;99.90
10885;DHT22;5495;53.252;10.390;2022-09-09T11:21:28;21.40;99.90
10885;DHT22;5495;53.252;10.390;2022-09-09T11:24:02;21.10;99.90
10885;DHT22;5495;53.252;10.390;2022-09-09T11:26:37;20.80;99.90
10885;DHT22;5495;53.252;10.390;2022-09-09T11:29:36;20.60;99.90
10885;DHT22;5495;53.252;10.390;2022-09-09T11:32:20;20.70;99.90
10885;DHT22;5495;53.252;10.390;2022-09-09T11:34:53;20.00;99.90
10885;DHT22;5495;53.252;10.390;2022-09-09T11:37:45;19.90;99.90
10885;DHT22;5495;53.252;10.390;2022-09-09T11:40:23;19.70;99.90
10885;DHT22;5495;53.252;10.390;2022-09-09T11:43:02;18.80;99.90
10885;DHT22;5495;53.252;10.390;2022-09-09T11:45:33;19.00;99.90
10885;DHT22;5495;53.252;10.390;2022-09-09T11:48:03;18.80;99.90
10885;DHT22;5495;53.252;10.390;2022-09-09T11:50:34;18.60;99.90
10885;DHT22;5495;53.252;10.390;2022-09-09T11:53:20;18.40;99.90
10885;DHT22;5495;53.252;10.390;2022-09-09T11:56:10;18.40;99.90
10885;DHT22;5495;53.252;10.390;2022-09-09T11:58:55;18.30;99.90
10885;DHT22;5495;53.252;10.390;2022-09-09T12:01:33;18.30;99.90
10885;DHT22;5495;53.252;10.390;2022-09-09T12:04:32;18.30;99.90
10885;DHT22;5495;53.252;10.390;2022-09-09T12:07:19;18.60;99.90
10885;DHT22;5495;53.252;10.390;2022-09-09T12:09:57;18.40;99.90
10885;DHT22;5495;53.252;10.390;2022-09-09T12:12:38;18.50;99.90
10885;DHT22;5495;53.252;10.390;2022-09-09T12:15:28;19.40;99.90
10885;DHT22;5495;53.252;10.390;2022-09-09T12:17:58;17.00;99.90
10885;DHT22;5495;53.252;10.390;2022-09-09T12:20:39;19.20;99.90
10885;DHT22;5495;53.252;10.390;2022-09-09T12:23:52;19.70;99.90
10885;DHT22;5495;53.252;10.390;2022-09-09T12:26:38;19.50;99.90
10885;DHT22;5495;53.252;10.390;2022-09-09T12:29:47;20.10;99.90
10885;DHT22;5495;53.252;10.390;2022-09-09T12:32:22;20.40;99.90
10885;DHT22;5495;53.252;10.390;2022-09-09T12:34:54;22.70;99.90
10885;DHT22;5495;53.252;10.390;2022-09-09T12:37:31;18.30;99.90
10885;DHT22;5495;53.252;10.390;2022-09-09T12:40:18;20.00;99.90
10885;DHT22;5495;53.252;10.390;2022-09-09T12:42:46;20.90;99.90
10885;DHT22;5495;53.252;10.390;2022-09-09T12:45:43;21.10;99.90
10885;DHT22;5495;53.252;10.390;2022-09-09T12:48:17;19.90;99.90
10885;DHT22;5495;53.252;10.390;2022-09-09T12:51:16;21.10;99.90
10885;DHT22;5495;53.252;10.390;2022-09-09T12:53:48;20.50;99.90
10885;DHT22;5495;53.252;10.390;2022-09-09T12:56:36;20.80;99.90
10885;DHT22;5495;53.252;10.390;2022-09-09T12:59:26;20.90;99.90
10885;DHT22;5495;53.252;10.390;2022-09-09T13:02:11;21.40;99.90
10885;DHT22;5495;53.252;10.390;2022-09-09T13:05:34;22.60;99.90
10885;DHT22;5495;53.252;10.390;2022-09-09T13:08:33;22.60;99.90
10885;DHT22;5495;53.252;10.390;2022-09-09T13:11:18;23.60;99.90
10885;DHT22;5495;53.252;10.390;2022-09-09T13:14:01;22.70;99.90
10885;DHT22;5495;53.252;10.390;2022-09-09T13:16:32;23.70;99.90
10885;DHT22;5495;53.252;10.390;2022-09-09T13:39:04;21.40;99.90
10885;DHT22;5495;53.252;10.390;2022-09-09T13:42:54;20.10;99.90
10885;DHT22;5495;53.252;10.390;2022-09-09T14:38:19;17.90;99.90
10885;DHT22;5495;53.252;10.390;2022-09-09T14:42:26;17.90;99.90
10885;DHT22;5495;53.252;10.390;2022-09-09T14:43:57;17.90;99.90
10885;DHT22;5495;53.252;10.390;2022-09-09T14:46:25;17.50;99.90
10885;DHT22;5495;53.252;10.390;2022-09-09T15:05:28;16.30;99.90
10885;DHT22;5495;53.252;10.390;2022-09-09T15:08:01;17.80;99.90
10885;DHT22;5495;53.252;10.390;2022-09-09T15:11:14;17.90;99.90
10885;DHT22;5495;53.252;10.390;2022-09-09T15:14:12;17.90;99.90
10885;DHT22;5495;53.252;10.390;2022-09-09T15:19:32;17.90;99.90
10885;DHT22;5495;53.252;10.390;2022-09-09T15:48:30;18.00;99.90
10885;DHT22;5495;53.252;10.390;2022-09-09T15:51:05;21.40;99.90
10885;DHT22;5495;53.252;10.390;2022-09-09T15:57:11;18.60;99.90
10885;DHT22;5495;53.252;10.390;2022-09-09T16:00:01;18.00;99.90
10885;DHT22;5495;53.252;10.390;2022-09-09T16:06:24;18.50;99.90
10885;DHT22;5495;53.252;10.390;2022-09-09T16:19:50;16.90;99.90
10885;DHT22;5495;53.252;10.390;2022-09-09T16:36:13;18.30;99.90
10885;DHT22;5495;53.252;10.390;2022-09-09T16:39:03;17.90;99.90
10885;DHT22;5495;53.252;10.390;2022-09-09T16:41:51;18.60;99.90
10885;DHT22;5495;53.252;10.390;2022-09-09T16:44:26;17.60;99.90
10885;DHT22;5495;53.252;10.390;2022-09-09T17:06:45;17.20;99.90
10885;DHT22;5495;53.252;10.390;2022-09-09T17:17:05;17.20;99.90
10885;DHT22;5495;53.252;10.390;2022-09-09T17:19:50;17.00;99.90
10885;DHT22;5495;53.252;10.390;2022-09-09T17:22:57;15.60;99.90
10885;DHT22;5495;53.252;10.390;2022-09-09T17:25:29;18.20;99.90
10885;DHT22;5495;53.252;10.390;2022-09-09T17:27:57;17.30;99.90
10885;DHT22;5495;53.252;10.390;2022-09-09T17:41:05;16.20;99.90
10885;DHT22;5495;53.252;10.390;2022-09-09T17:44:34;16.40;99.90
10885;DHT22;5495;53.252;10.390;2022-09-09T17:50:41;16.30;99.90
10885;DHT22;5495;53.252;10.390;2022-09-09T18:40:08;15.90;99.90
10885;DHT22;5495;53.252;10.390;2022-09-09T18:43:44;16.10;99.90
10885;DHT22;5495;53.252;10.390;2022-09-09T18:45:51;16.20;99.90
10885;DHT22;5495;53.252;10.390;2022-09-09T18:48:28;15.90;99.90
10885;DHT22;5495;53.252;10.390;2022-09-09T18:51:17;16.30;99.90
10885;DHT22;5495;53.252;10.390;2022-09-09T18:53:49;15.60;99.90
10885;DHT22;5495;53.252;10.390;2022-09-09T18:56:25;15.50;99.90
10885;DHT22;5495;53.252;10.390;2022-09-09T18:59:04;16.00;99.90
10885;DHT22;5495;53.252;10.390;2022-09-09T19:01:41;16.30;99.90
10885;DHT22;5495;53.252;10.390;2022-09-09T19:04:24;15.00;99.90
10885;DHT22;5495;53.252;10.390;2022-09-09T19:07:37;15.90;99.90
10885;DHT22;5495;53.252;10.390;2022-09-09T19:10:30;15.40;99.90
10885;DHT22;5495;53.252;10.390;2022-09-09T19:13:20;15.60;99.90
10885;DHT22;5495;53.252;10.390;2022-09-09T19:16:02;16.50;99.90
10885;DHT22;5495;53.252;10.390;2022-09-09T19:19:07;15.80;99.90
10885;DHT22;5495;53.252;10.390;2022-09-09T19:22:00;15.70;99.90
10885;DHT22;5495;53.252;10.390;2022-09-09T19:24:43;15.40;99.90
10885;DHT22;5495;53.252;10.390;2022-09-09T19:27:26;15.90;99.90
10885;DHT22;5495;53.252;10.390;2022-09-09T19:30:09;15.40;99.90
10885;DHT22;5495;53.252;10.390;2022-09-09T19:32:40;15.60;99.90
10885;DHT22;5495;53.252;10.390;2022-09-09T19:35:17;14.70;99.90
10885;DHT22;5495;53.252;10.390;2022-09-09T19:37:47;15.50;99.90
10885;DHT22;5495;53.252;10.390;2022-09-09T19:40:14;15.30;99.90
10885;DHT22;5495;53.252;10.390;2022-09-09T19:42:44;15.50;99.90
10885;DHT22;5495;53.252;10.390;2022-09-09T19:45:15;15.20;99.90
10885;DHT22;5495;53.252;10.390;2022-09-09T19:47:43;15.40;99.90
10885;DHT22;5495;53.252;10.390;2022-09-09T19:50:15;15.10;99.90
10885;DHT22;5495;53.252;10.390;2022-09-09T19:52:51;15.10;99.90
10885;DHT22;5495;53.252;10.390;2022-09-09T19:55:44;15.20;99.90
10885;DHT22;5495;53.252;10.390;2022-09-09T19:58:49;15.50;99.90
10885;DHT22;5495;53.252;10.390;2022-09-09T20:01:44;16.70;99.90
10885;DHT22;5495;53.252;10.390;2022-09-09T20:04:15;14.60;99.90
10885;DHT22;5495;53.252;10.390;2022-09-09T20:07:11;14.70;99.90
10885;DHT22;5495;53.252;10.390;2022-09-09T20:09:53;13.50;99.90
10885;DHT22;5495;53.252;10.390;2022-09-09T20:12:45;15.60;99.90
10885;DHT22;5495;53.252;10.390;2022-09-09T20:15:34;15.60;99.90
10885;DHT22;5495;53.252;10.390;2022-09-09T20:18:19;16.80;99.90
10885;DHT22;5495;53.252;10.390;2022-09-09T20:21:03;15.20;99.90
10885;DHT22;5495;53.252;10.390;2022-09-09T20:23:59;15.80;99.90
10885;DHT22;5495;53.252;10.390;2022-09-09T20:26:48;16.00;99.90
10885;DHT22;5495;53.252;10.390;2022-09-09T20:29:19;16.20;99.90
10885;DHT22;5495;53.252;10.390;2022-09-09T20:31:56;15.30;99.90